DNKN

Mallam Aminu International Airport

Kano, Nigeria
METAR DNKN 131000Z 05008KT 7000 NSC 25/04 Q1022 NOSIG
Observed Flight Rules
Dec-13 @ 10:00 UTC (2 hours ago) Marginal Visual Flight Rules
Wind Visibility Clouds
50° at 8 knots 7,001 meters
  • Clear skies
Temperatures Readings
Current 25°C / 77°F
Dewpoint 4°C / 39°F
Humidity 26%
Altimeter 30.18" Hg
Pressure 1022 hPa
Elevation 481
METAR DNKN 131000Z 05008KT 7000 NSC 25/04 Q1022 NOSIG
Observed Flight Rules
Dec-13 @ 10:00 UTC
(2 hours ago)
MVFR
Wind Visibility
50° at 8 knots 7,001 meters
Clouds
  • Clear skies
Temperature Dewpoint
25°C / 77°F 4°C / 39°F
Humidity Altimeter Pressure
26% 30.18" Hg 1022 hPa